Austin, Nevada
Current Conditions -  °F | °C
As of 9:56 PM on Thursday 18 Dec 2014 (Local Time) from KNFL Reporting Station
Broken Clouds Broken Clouds  
Wind Chill: 32°   Ceiling: 20000
Heat Index: 39°   Visibility: 10mi
Dew Point: 27°   Wind: 10mph
Humidity: 62%   Direction: 170°S
Pressure: 30.12"   Gusts: NA
Location:  39.49°N, 117.07°W
Report Text: KNFL 190556Z 17009KT 10SM SCT100 BKN200 04/M03 A3012 RMK AO2 SLP167 T00391028 10089 20006 58000
Loading
Personal Weather Stations






























Interactive Weather Map New forecast layout! Learn more

10-Day Weather Forecast

Advertisements
Track Severe Weather on mobile